Time;durP1;ratioP1;P1;durP2;ratioP2;P2;SDS_P1;SDS_P2;PMS_P1;PMS_P2;Temp;Humidity;BMP_temperature;BMP_pressure;BME280_temperature;BME280_humidity;BME280_pressure;Samples;Min_cycle;Max_cycle;Signal;HPM_P1;HPM_P2
2022/03/25 00:01:14;;;;;;;;;56.75;45.00;;;;;12.72;26.40;100017.28;5079342;28;8871;-74
2022/03/25 00:03:43;;;;;;;;;52.50;44.50;;;;;12.75;26.12;100012.91;5090458;28;8866;-74
2022/03/25 00:06:13;;;;;;;;;56.25;45.75;;;;;12.78;25.97;100015.53;5072904;28;8856;-74
2022/03/25 00:08:42;;;;;;;;;59.50;49.25;;;;;12.79;25.81;100022.50;5108717;28;8854;-74
2022/03/25 00:11:10;;;;;;;;;57.75;47.25;;;;;12.80;25.62;100013.78;5039059;28;8866;-75
2022/03/25 00:13:39;;;;;;;;;55.75;46.50;;;;;12.77;25.65;100013.78;5086885;28;8835;-75
2022/03/25 00:16:08;;;;;;;;;53.75;43.50;;;;;12.75;25.92;100012.91;5088181;28;8869;-75
2022/03/25 00:18:37;;;;;;;;;57.75;47.50;;;;;12.72;26.08;100018.19;5067955;28;8887;-76
2022/03/25 00:21:05;;;;;;;;;56.25;46.50;;;;;12.71;26.08;100024.28;5088048;28;8859;-75
2022/03/25 00:23:36;;;;;;;;;58.50;47.25;;;;;12.68;26.61;100024.25;5088472;28;8890;-75
2022/03/25 00:26:05;;;;;;;;;56.00;44.25;;;;;12.66;26.78;100029.53;5100473;28;8854;-74
2022/03/25 00:28:33;;;;;;;;;53.50;43.00;;;;;12.63;26.88;100020.81;5108500;28;8854;-74
2022/03/25 00:31:03;;;;;;;;;52.00;43.25;;;;;12.61;26.69;100027.78;5108591;28;8838;-75
2022/03/25 00:33:32;;;;;;;;;56.25;45.50;;;;;12.58;27.08;100025.16;5089628;28;8842;-76
2022/03/25 00:36:02;;;;;;;;;55.00;45.25;;;;;12.55;26.44;100030.38;5070204;28;8926;-75
2022/03/25 00:38:31;;;;;;;;;57.25;47.25;;;;;12.48;26.53;100027.78;5088237;28;8865;-75
2022/03/25 00:41:01;;;;;;;;;57.75;45.75;;;;;12.44;26.93;100023.44;5088093;28;8904;-76
2022/03/25 00:43:30;;;;;;;;;52.75;43.00;;;;;12.39;27.37;100029.53;5053253;28;8837;-75
2022/03/25 00:45:58;;;;;;;;;56.00;45.75;;;;;12.33;26.77;100026.94;5053038;28;8876;-75
2022/03/25 00:48:28;;;;;;;;;53.75;45.00;;;;;12.27;26.92;100023.44;5070122;28;8861;-75
2022/03/25 00:50:58;;;;;;;;;52.75;43.25;;;;;12.11;26.79;100020.81;5087675;28;8979;-75
2022/03/25 00:53:26;;;;;;;;;53.75;43.75;;;;;12.06;27.28;100016.44;5087936;28;8865;-75
2022/03/25 00:55:55;;;;;;;;;55.25;45.50;;;;;12.01;26.99;100023.41;5069376;28;9018;-74
2022/03/25 00:58:25;;;;;;;;;52.00;43.25;;;;;11.98;27.69;100012.06;5069667;28;8844;-74
2022/03/25 01:00:54;;;;;;;;;53.25;43.00;;;;;11.98;27.54;100020.78;5061126;28;8889;-74
2022/03/25 01:03:24;;;;;;;;;58.50;47.75;;;;;11.97;28.50;100018.19;5087841;28;8958;-75
2022/03/25 01:05:53;;;;;;;;;58.75;48.50;;;;;11.92;28.15;100023.38;5087690;28;8961;-75
2022/03/25 01:08:22;;;;;;;;;53.00;43.75;;;;;11.75;28.10;100019.84;5051333;28;8867;-75
2022/03/25 01:10:50;;;;;;;;;56.75;42.75;;;;;11.69;28.28;100021.56;5035775;28;8891;-75
2022/03/25 01:13:22;;;;;;;;;33.00;31.00;;;;;11.59;28.95;100027.66;5069850;28;8933;-74
2022/03/25 01:15:52;;;;;;;;;45.75;37.75;;;;;11.48;29.47;100029.34;5069630;28;8845;-75
2022/03/25 01:18:21;;;;;;;;;26.50;23.00;;;;;11.44;29.13;100023.25;5069548;28;8871;-74
2022/03/25 01:20:50;;;;;;;;;35.75;33.50;;;;;11.28;30.14;100037.09;5070005;28;8909;-74
2022/03/25 01:23:21;;;;;;;;;33.00;31.00;;;;;11.00;30.65;100049.13;5069455;28;8861;-75
2022/03/25 01:25:49;;;;;;;;;39.75;32.75;;;;;10.60;31.82;100049.72;5087519;28;8838;-79
2022/03/25 01:28:19;;;;;;;;;33.50;29.00;;;;;10.72;31.40;100041.13;5093397;28;8850;-75
2022/03/25 01:30:49;;;;;;;;;39.50;36.00;;;;;10.72;31.74;100044.63;5111606;28;8933;-74
2022/03/25 01:33:19;;;;;;;;;39.50;34.25;;;;;10.80;31.43;100041.19;5058363;28;8900;-75
2022/03/25 01:35:47;;;;;;;;;35.25;34.25;;;;;10.80;31.71;100049.03;5111519;28;8865;-74
2022/03/25 01:38:16;;;;;;;;;38.50;35.75;;;;;10.80;32.01;100044.66;5111378;28;8831;-73
2022/03/25 01:40:45;;;;;;;;;30.75;28.50;;;;;10.73;32.47;100041.13;5092055;28;8962;-75
2022/03/25 01:43:14;;;;;;;;;30.50;26.75;;;;;10.66;32.55;100048.91;5093123;28;8970;-75
2022/03/25 01:45:42;;;;;;;;;32.75;31.75;;;;;10.62;32.78;100044.53;5058539;28;8870;-76
2022/03/25 01:48:13;;;;;;;;;26.00;26.00;;;;;10.57;33.19;100046.22;5075535;28;8854;-74
2022/03/25 01:50:45;;;;;;;;;23.75;22.00;;;;;10.45;33.54;100053.13;5089433;28;8976;-74
2022/03/25 01:53:16;;;;;;;;;23.00;21.50;;;;;10.33;33.70;100058.22;5090778;28;8833;-74
2022/03/25 01:55:52;;;;;;;;;22.50;19.75;;;;;10.34;33.91;100057.38;5081604;28;8900;-74
2022/03/25 01:58:22;;;;;;;;;29.00;25.00;;;;;10.41;33.71;100066.97;5089879;28;8866;-76
2022/03/25 02:00:51;;;;;;;;;22.00;22.00;;;;;10.44;33.66;100059.19;5072713;28;8879;-73
2022/03/25 02:03:21;;;;;;;;;29.25;25.00;;;;;10.38;33.14;100066.97;5090355;28;9755;-74
2022/03/25 02:05:52;;;;;;;;;26.50;22.75;;;;;10.42;33.55;100063.50;5072146;28;8853;-75
2022/03/25 02:08:22;;;;;;;;;25.50;21.25;;;;;10.49;33.61;100065.31;5072323;28;9672;-75
2022/03/25 02:10:51;;;;;;;;;25.50;23.00;;;;;10.36;33.39;100071.28;5071442;28;8906;-75
2022/03/25 02:13:22;;;;;;;;;26.50;24.50;;;;;10.33;33.52;100071.25;5089208;28;9013;-74
2022/03/25 02:15:57;;;;;;;;;20.50;18.50;;;;;10.41;32.91;100077.38;5028594;28;8895;-75
2022/03/25 02:18:26;;;;;;;;;28.00;26.00;;;;;10.44;33.37;100077.44;5090196;28;8832;-74
2022/03/25 02:20:56;;;;;;;;;27.75;25.75;;;;;10.48;32.86;100081.81;5072316;28;8887;-74
2022/03/25 02:23:28;;;;;;;;;24.50;22.25;;;;;10.44;33.46;100079.16;5071952;28;8848;-75
2022/03/25 02:25:56;;;;;;;;;28.50;27.00;;;;;10.47;32.92;100084.38;5090122;28;8825;-75
2022/03/25 02:28:26;;;;;;;;;14.25;11.75;;;;;10.47;33.15;100085.28;5055730;28;8884;-76
2022/03/25 02:30:59;;;;;;;;;28.75;27.00;;;;;10.50;32.59;100089.66;5073619;28;8876;-74
2022/03/25 02:33:27;;;;;;;;;26.00;24.75;;;;;10.53;32.80;100092.28;5092202;28;8870;-74
2022/03/25 02:35:56;;;;;;;;;29.50;28.25;;;;;10.54;33.07;100091.41;5074657;28;8846;-74
2022/03/25 02:38:25;;;;;;;;;29.75;26.50;;;;;10.58;32.55;100097.53;5092162;28;8969;-74
2022/03/25 02:40:56;;;;;;;;;30.50;23.00;;;;;10.51;32.80;100100.09;5075207;28;8854;-75
2022/03/25 02:43:30;;;;;;;;;26.50;22.50;;;;;10.38;33.20;100105.16;5075244;28;8846;-74
2022/03/25 02:46:04;;;;;;;;;35.25;28.75;;;;;9.98;34.01;100107.34;5110145;28;8850;-74
2022/03/25 02:48:33;;;;;;;;;26.75;24.00;;;;;9.78;34.53;100107.13;5073158;28;8846;-73
2022/03/25 02:51:02;;;;;;;;;30.25;27.75;;;;;9.64;34.38;100113.06;5071366;28;8866;-74
2022/03/25 02:53:31;;;;;;;;;32.75;29.75;;;;;9.80;33.76;100111.50;5089735;28;8837;-74
2022/03/25 02:56:01;;;;;;;;;24.25;22.75;;;;;9.90;33.90;100109.88;5089512;28;8861;-75
2022/03/25 02:58:29;;;;;;;;;27.75;25.75;;;;;10.00;34.01;100121.25;5089495;28;8925;-75
2022/03/25 03:00:58;;;;;;;;;30.00;28.25;;;;;10.04;33.92;100120.47;5089572;28;8954;-75
2022/03/25 03:03:27;;;;;;;;;29.25;26.25;;;;;10.05;33.35;100116.97;5089367;28;8841;-74
2022/03/25 03:05:56;;;;;;;;;25.50;22.50;;;;;10.07;33.66;100120.47;5089005;28;8840;-75
2022/03/25 03:08:25;;;;;;;;;25.75;22.75;;;;;10.08;33.95;100124.84;5089287;28;8972;-74
2022/03/25 03:10:53;;;;;;;;;30.50;28.75;;;;;10.05;33.57;100125.66;5089276;28;9187;-74
2022/03/25 03:13:23;;;;;;;;;24.50;23.50;;;;;10.06;33.48;100127.44;5053469;28;8849;-74
2022/03/25 03:15:52;;;;;;;;;27.50;22.75;;;;;10.04;33.71;100129.13;5071242;28;8829;-75
2022/03/25 03:18:22;;;;;;;;;25.50;24.25;;;;;10.04;33.43;100134.34;5089319;28;8987;-75
2022/03/25 03:20:50;;;;;;;;;27.50;23.25;;;;;10.02;33.95;100136.06;5088525;28;8889;-75
2022/03/25 03:23:19;;;;;;;;;33.25;30.25;;;;;10.03;33.60;100144.75;5089350;28;8849;-75
2022/03/25 03:25:47;;;;;;;;;30.75;30.00;;;;;10.01;34.19;100146.47;5089015;28;8853;-74
2022/03/25 03:28:16;;;;;;;;;24.50;24.50;;;;;9.93;33.61;100142.03;5053288;28;8867;-74
2022/03/25 03:30:46;;;;;;;;;23.25;20.75;;;;;9.91;33.90;100146.34;5088938;28;9468;-74
2022/03/25 03:33:15;;;;;;;;;26.25;24.00;;;;;9.78;34.36;100143.59;5089215;28;8856;-76
2022/03/25 03:35:44;;;;;;;;;21.50;21.25;;;;;9.60;34.03;100150.28;5070607;28;8892;-75
2022/03/25 03:38:13;;;;;;;;;24.50;21.00;;;;;9.54;34.98;100147.63;5106794;28;8906;-74
2022/03/25 03:40:42;;;;;;;;;22.75;20.00;;;;;9.43;34.80;100155.28;5109321;28;8885;-74
2022/03/25 03:43:10;;;;;;;;;28.25;25.25;;;;;9.45;34.39;100150.09;5109461;28;8956;-75
2022/03/25 03:45:39;;;;;;;;;20.00;19.75;;;;;9.45;34.91;100153.59;5090889;28;8850;-74
2022/03/25 03:48:11;;;;;;;;;27.25;25.75;;;;;9.43;34.60;100157.00;5108261;28;8869;-75
2022/03/25 03:50:40;;;;;;;;;15.25;13.75;;;;;9.46;34.08;100164.88;5107350;28;8856;-75
2022/03/25 03:53:10;;;;;;;;;24.25;21.75;;;;;9.45;34.91;100164.00;5063224;28;9639;-74
2022/03/25 03:55:39;;;;;;;;;29.00;24.00;;;;;9.35;34.94;100162.97;5108327;28;8866;-74
2022/03/25 03:58:13;;;;;;;;;24.75;22.25;;;;;9.42;34.32;100161.34;5108762;28;8861;-74
2022/03/25 04:00:41;;;;;;;;;19.75;16.25;;;;;9.31;34.47;100158.59;5091115;28;8865;-75
2022/03/25 04:03:12;;;;;;;;;25.50;25.00;;;;;9.30;35.37;100161.16;5056567;28;8862;-74
2022/03/25 04:05:40;;;;;;;;;26.75;25.25;;;;;9.08;35.32;100166.06;5108932;28;8938;-76
2022/03/25 04:08:09;;;;;;;;;24.25;19.50;;;;;8.98;35.92;100167.66;5100007;28;8860;-75
2022/03/25 04:10:37;;;;;;;;;24.00;20.50;;;;;9.07;35.32;100166.88;5088222;28;8872;-75
2022/03/25 04:13:07;;;;;;;;;25.50;21.25;;;;;9.15;35.55;100159.22;5052797;28;8983;-75
2022/03/25 04:15:36;;;;;;;;;20.75;17.75;;;;;9.23;35.48;100162.81;5036375;28;8852;-75
2022/03/25 04:18:05;;;;;;;;;26.75;24.25;;;;;9.02;36.08;100163.38;5069189;28;8884;-75
2022/03/25 04:20:35;;;;;;;;;20.25;17.25;;;;;9.12;35.65;100175.66;5088201;28;8941;-75
2022/03/25 04:23:05;;;;;;;;;27.75;25.75;;;;;9.08;36.01;100175.59;5070379;28;8924;-74
2022/03/25 04:25:34;;;;;;;;;26.00;24.50;;;;;9.05;35.49;100173.81;5092155;28;8826;-74
2022/03/25 04:28:03;;;;;;;;;22.50;22.50;;;;;9.13;35.72;100173.91;5090423;28;8862;-75
2022/03/25 04:30:34;;;;;;;;;24.25;22.00;;;;;9.13;35.65;100179.13;5090241;28;8943;-74
2022/03/25 04:33:03;;;;;;;;;25.50;21.75;;;;;9.14;35.02;100175.69;5108410;28;8929;-75
2022/03/25 04:35:32;;;;;;;;;20.75;19.75;;;;;9.18;35.64;100180.06;5108641;28;8857;-74
2022/03/25 04:38:03;;;;;;;;;24.00;21.00;;;;;9.21;35.12;100176.66;5108270;28;8915;-74
2022/03/25 04:40:33;;;;;;;;;23.25;22.25;;;;;9.24;35.18;100185.38;5104157;28;9703;-74
2022/03/25 04:43:03;;;;;;;;;24.50;23.75;;;;;9.15;35.55;100183.53;5069523;28;8924;-75
2022/03/25 04:45:32;;;;;;;;;26.25;23.00;;;;;9.17;35.99;100188.75;5088351;28;9015;-74
2022/03/25 04:48:03;;;;;;;;;25.50;21.75;;;;;8.70;36.62;100188.84;5087807;28;8969;-74
2022/03/25 04:50:31;;;;;;;;;27.50;25.00;;;;;8.58;36.97;100199.88;5069909;28;8892;-74
2022/03/25 04:53:01;;;;;;;;;24.75;22.50;;;;;8.24;37.61;100204.44;5087726;28;8875;-74
2022/03/25 04:55:31;;;;;;;;;21.00;20.75;;;;;7.87;38.64;100213.19;5035003;28;8904;-76
2022/03/25 04:57:59;;;;;;;;;26.75;24.50;;;;;7.41;39.74;100208.75;5036776;28;9117;-76
2022/03/25 05:00:31;;;;;;;;;24.50;19.75;;;;;7.23;40.28;100216.09;5073000;28;8860;-76
2022/03/25 05:03:00;;;;;;;;;26.50;23.50;;;;;7.06;40.84;100220.88;5073691;28;8959;-74
2022/03/25 05:05:31;;;;;;;;;22.00;20.50;;;;;6.93;41.08;100216.22;5102140;28;8854;-75
2022/03/25 05:08:02;;;;;;;;;27.00;26.00;;;;;6.86;41.54;100222.94;5023940;28;8874;-76
2022/03/25 05:10:31;;;;;;;;;24.75;24.50;;;;;6.76;41.61;100221.84;5046926;28;8862;-74
2022/03/25 05:13:19;;;;;;;;;25.75;23.75;;;;;6.65;41.86;100228.47;5047027;28;8909;-75
2022/03/25 05:15:48;;;;;;;;;25.75;22.25;;;;;6.88;41.49;100234.28;5013309;28;8834;-75
2022/03/25 05:18:17;;;;;;;;;24.25;21.25;;;;;7.02;41.05;100235.47;5047403;28;8896;-75
2022/03/25 05:20:45;;;;;;;;;35.25;30.25;;;;;7.30;40.42;100243.94;5046275;28;8862;-76
2022/03/25 05:23:15;;;;;;;;;29.75;26.75;;;;;7.37;40.47;100245.84;5047029;28;8865;-74
2022/03/25 05:25:44;;;;;;;;;29.25;29.25;;;;;7.20;40.74;100252.31;5046580;28;8838;-76
2022/03/25 05:28:13;;;;;;;;;26.25;23.50;;;;;6.99;41.33;100253.56;5030124;28;8842;-75
2022/03/25 05:30:42;;;;;;;;;28.25;26.25;;;;;7.01;41.49;100251.00;5045610;28;8935;-76
2022/03/25 05:33:11;;;;;;;;;28.25;22.50;;;;;6.89;41.80;100255.88;5044170;28;8878;-76
2022/03/25 05:35:39;;;;;;;;;28.25;24.75;;;;;6.89;41.92;100259.34;5029847;28;8976;-75
2022/03/25 05:38:09;;;;;;;;;29.25;29.00;;;;;6.98;42.08;100258.72;5046361;28;8827;-74
2022/03/25 05:40:39;;;;;;;;;27.50;24.00;;;;;6.94;41.91;100260.34;5033600;28;8965;-75
2022/03/25 05:43:08;;;;;;;;;25.00;24.00;;;;;6.99;41.91;100261.34;5103749;28;8875;-75
2022/03/25 05:45:37;;;;;;;;;26.50;25.50;;;;;7.12;41.62;100262.50;5108089;28;8834;-74
2022/03/25 05:48:06;;;;;;;;;22.00;21.50;;;;;7.07;41.67;100266.72;5105902;28;8892;-75
2022/03/25 05:50:35;;;;;;;;;45.25;34.25;;;;;7.15;41.83;100266.91;5109768;28;8846;-75
2022/03/25 05:53:03;;;;;;;;;31.50;27.00;;;;;7.27;41.59;100268.94;5037557;28;8894;-75
2022/03/25 05:55:38;;;;;;;;;28.50;26.25;;;;;7.22;41.84;100279.16;5098137;28;8858;-74
2022/03/25 05:58:07;;;;;;;;;29.75;27.25;;;;;7.27;41.63;100277.56;5103618;28;8855;-76
2022/03/25 06:00:36;;;;;;;;;33.75;32.00;;;;;7.35;41.52;100283.84;5109221;28;8877;-75
2022/03/25 06:03:05;;;;;;;;;30.75;29.25;;;;;7.31;41.36;100286.31;5086872;28;8868;-77
2022/03/25 06:05:35;;;;;;;;;36.00;30.00;;;;;7.32;41.53;100288.09;5088504;28;10040;-75
2022/03/25 06:08:03;;;;;;;;;27.50;27.50;;;;;7.50;41.39;100295.41;5052689;28;8922;-76
2022/03/25 06:10:33;;;;;;;;;31.50;27.75;;;;;7.47;41.16;100291.03;5103181;28;8854;-75
2022/03/25 06:13:04;;;;;;;;;31.00;30.50;;;;;7.53;41.34;100298.09;5090554;28;8893;-75
2022/03/25 06:15:33;;;;;;;;;31.25;29.75;;;;;7.56;41.16;100295.56;5070418;28;8846;-76
2022/03/25 06:18:01;;;;;;;;;31.00;28.00;;;;;7.63;41.00;100296.59;5077996;28;9001;-76
2022/03/25 06:20:31;;;;;;;;;29.25;25.75;;;;;7.73;40.69;100295.97;5069681;28;8858;-75
2022/03/25 06:23:00;;;;;;;;;28.50;27.00;;;;;7.54;41.08;100307.63;5087851;28;8858;-75
2022/03/25 06:25:29;;;;;;;;;33.25;29.00;;;;;7.79;40.45;100311.69;5086987;28;8841;-74
2022/03/25 06:28:00;;;;;;;;;36.00;31.25;;;;;7.75;40.94;100302.06;5106730;28;8942;-75
2022/03/25 06:30:34;;;;;;;;;37.25;29.50;;;;;7.85;40.69;100308.38;5089645;28;8858;-76
2022/03/25 06:33:05;;;;;;;;;33.00;30.50;;;;;7.82;40.20;100306.56;5090341;28;8869;-74
2022/03/25 06:35:34;;;;;;;;;27.50;26.75;;;;;7.77;41.00;100310.78;5036225;28;8834;-74
2022/03/25 06:38:05;;;;;;;;;31.25;26.75;;;;;7.99;40.20;100313.00;5052545;28;8911;-75
2022/03/25 06:40:34;;;;;;;;;34.33;29.00;;;;;8.22;39.67;100306.56;5050488;28;8895;-77
2022/03/25 06:43:03;;;;;;;;;39.25;30.00;;;;;8.18;39.80;100309.13;5051162;28;8881;-75
2022/03/25 06:45:34;;;;;;;;;32.50;29.75;;;;;8.26;38.98;100310.97;5089073;28;8857;-75
2022/03/25 06:48:03;;;;;;;;;31.75;28.00;;;;;8.44;39.04;100315.72;5033451;28;9632;-76
2022/03/25 06:50:32;;;;;;;;;33.25;28.50;;;;;8.43;38.67;100314.84;5031496;28;9540;-75
2022/03/25 06:53:02;;;;;;;;;32.75;30.50;;;;;8.56;38.24;100310.75;5086502;28;8954;-76
2022/03/25 06:55:32;;;;;;;;;38.25;30.50;;;;;8.74;38.46;100326.72;5053059;28;8878;-75
2022/03/25 06:58:01;;;;;;;;;31.25;29.75;;;;;8.70;38.78;100324.06;5086544;28;9466;-75
2022/03/25 07:00:31;;;;;;;;;10.75;10.25;;;;;8.88;38.74;100324.38;5086327;28;8946;-74
2022/03/25 07:03:02;;;;;;;;;28.75;24.50;;;;;8.83;38.09;100315.63;5086230;28;8846;-74
2022/03/25 07:05:32;;;;;;;;;30.75;29.25;;;;;8.77;38.63;100329.41;5086610;28;8892;-75
2022/03/25 07:08:01;;;;;;;;;35.50;32.00;;;;;8.89;38.82;100333.09;5050360;28;9597;-74
2022/03/25 07:10:31;;;;;;;;;40.50;32.00;;;;;8.65;38.73;100342.13;5064883;28;8856;-74
2022/03/25 07:13:00;;;;;;;;;29.25;27.50;;;;;8.94;38.29;100332.31;5082316;28;8862;-74
2022/03/25 07:18:23;;;;;;;;;31.25;28.00;;;;;9.01;38.12;100341.09;5085604;28;8842;-73
2022/03/25 07:20:52;;;;;;;;;31.50;30.50;;;;;9.39;38.25;100338.28;5035738;28;8842;-71
2022/03/25 07:23:20;;;;;;;;;37.00;34.00;;;;;9.83;36.96;100345.06;5080943;28;9018;-71
2022/03/25 07:25:49;;;;;;;;;35.25;33.50;;;;;9.80;37.31;100343.31;5095512;28;8854;-73
2022/03/25 07:28:18;;;;;;;;;28.75;26.00;;;;;9.75;37.56;100350.16;5106068;28;8866;-71
2022/03/25 07:30:47;;;;;;;;;27.25;25.00;;;;;9.78;37.65;100351.97;5102425;28;9540;-72
2022/03/25 07:33:15;;;;;;;;;33.50;31.50;;;;;9.43;37.68;100355.72;5108235;28;10032;-71
2022/03/25 07:35:45;;;;;;;;;35.25;32.25;;;;;9.38;38.79;100351.31;5107993;28;8843;-72
2022/03/25 07:38:14;;;;;;;;;34.00;31.25;;;;;9.80;37.59;100347.66;5106405;28;9622;-71
2022/03/25 07:40:43;;;;;;;;;34.75;31.50;;;;;10.25;36.58;100344.84;5097621;28;8975;-72
2022/03/25 07:43:11;;;;;;;;;40.50;35.50;;;;;10.31;37.15;100355.38;5087447;28;8914;-71
2022/03/25 07:45:40;;;;;;;;;29.25;28.50;;;;;10.61;36.75;100342.72;5091418;28;9619;-72
2022/03/25 07:48:09;;;;;;;;;39.50;36.75;;;;;11.05;35.76;100348.44;5086484;28;8953;-72
2022/03/25 07:50:38;;;;;;;;;35.00;33.50;;;;;11.04;35.58;100346.69;5085916;28;8889;-72
2022/03/25 07:53:09;;;;;;;;;25.50;24.00;;;;;11.32;35.43;100360.91;5104340;28;8934;-73
2022/03/25 07:55:37;;;;;;;;;32.50;31.25;;;;;11.56;34.55;100356.75;5106473;28;8838;-72
2022/03/25 07:58:06;;;;;;;;;34.00;31.25;;;;;11.92;34.84;100347.47;5105133;28;8872;-71
2022/03/25 08:00:39;;;;;;;;;32.00;30.75;;;;;12.27;34.10;100339.00;5108666;28;8958;-71
2022/03/25 08:03:08;;;;;;;;;45.75;37.00;;;;;12.60;33.26;100351.31;5108307;28;8922;-72
2022/03/25 08:05:38;;;;;;;;;29.00;29.00;;;;;12.46;32.56;100347.78;5078408;28;8871;-70
2022/03/25 08:08:08;;;;;;;;;32.75;29.50;;;;;12.81;33.01;100353.16;5102818;28;8845;-72
2022/03/25 08:10:39;;;;;;;;;37.75;35.00;;;;;12.82;32.97;100339.22;5047017;28;8961;-72
2022/03/25 08:13:09;;;;;;;;;32.25;30.25;;;;;13.11;32.20;100346.25;5087292;28;10104;-71
2022/03/25 08:15:38;;;;;;;;;30.00;27.50;;;;;12.52;32.50;100354.81;5054530;28;8818;-70
2022/03/25 08:18:10;;;;;;;;;33.25;29.75;;;;;12.28;34.15;100352.03;5107496;28;8835;-72
2022/03/25 08:20:40;;;;;;;;;40.00;33.50;;;;;12.73;33.36;100349.66;5094046;28;9622;-71
2022/03/25 08:23:13;;;;;;;;;34.00;31.00;;;;;13.10;32.45;100346.25;5106985;28;8906;-71
2022/03/25 08:28:28;;;;;;;;;22.25;21.25;;;;;13.61;31.51;100336.72;5085117;28;8995;-71
2022/03/25 08:31:02;;;;;;;;;27.25;26.50;;;;;13.46;30.54;100345.47;5038806;28;9595;-73
2022/03/25 08:33:31;;;;;;;;;29.00;26.00;;;;;13.21;30.66;100352.38;5065149;28;8896;-72
2022/03/25 08:36:00;;;;;;;;;30.50;26.25;;;;;12.86;31.06;100358.41;5083383;28;8908;-72
2022/03/25 08:38:30;;;;;;;;;24.25;23.00;;;;;12.78;31.56;100360.13;5088278;28;8861;-72
2022/03/25 08:40:59;;;;;;;;;32.00;29.50;;;;;12.19;32.62;100357.25;5070306;28;9052;-70
2022/03/25 08:43:36;;;;;;;;;28.75;25.75;;;;;12.26;32.44;100361.63;5058781;28;8988;-72
2022/03/25 08:46:06;;;;;;;;;23.00;22.25;;;;;12.02;32.58;100367.59;5054928;28;8966;-72
2022/03/25 08:48:35;;;;;;;;;29.25;27.00;;;;;12.43;32.04;100366.94;5055350;28;8888;-73
2022/03/25 08:51:04;;;;;;;;;31.75;27.00;;;;;12.20;32.57;100365.97;5088370;28;8842;-73
2022/03/25 08:53:34;;;;;;;;;28.00;26.25;;;;;12.39;32.71;100366.94;5087722;28;8853;-74
2022/03/25 08:56:03;;;;;;;;;21.50;21.00;;;;;11.96;32.84;100371.91;5072088;28;9022;-74
2022/03/25 08:58:32;;;;;;;;;28.25;27.50;;;;;11.83;33.68;100368.28;5067190;28;8885;-74
2022/03/25 09:01:00;;;;;;;;;28.75;28.50;;;;;12.02;33.21;100366.69;5110612;28;8877;-72
2022/03/25 09:03:29;;;;;;;;;31.75;26.00;;;;;12.34;32.10;100363.41;5094546;28;9026;-71
2022/03/25 09:05:58;;;;;;;;;29.50;28.25;;;;;12.58;31.77;100358.31;5090885;28;8872;-72
2022/03/25 09:08:27;;;;;;;;;22.50;20.50;;;;;12.72;30.78;100366.22;5056217;28;8823;-74
2022/03/25 09:10:57;;;;;;;;;19.00;16.75;;;;;12.98;30.44;100355.81;5018217;28;8866;-73
2022/03/25 09:13:26;;;;;;;;;26.50;21.75;;;;;13.30;30.29;100362.00;5067454;28;8842;-72
2022/03/25 09:15:54;;;;;;;;;21.50;20.50;;;;;13.45;30.72;100360.31;5066827;28;8860;-71
2022/03/25 09:18:23;;;;;;;;;24.25;23.50;;;;;13.52;29.50;100370.81;5064760;28;8868;-71
2022/03/25 09:20:52;;;;;;;;;27.00;24.25;;;;;13.80;30.17;100353.34;5032417;28;8838;-71
2022/03/25 09:23:21;;;;;;;;;25.00;21.25;;;;;14.06;29.86;100355.91;5046816;28;8845;-72
2022/03/25 09:25:49;;;;;;;;;31.00;30.00;;;;;13.56;29.62;100368.19;5047267;28;8865;-73
2022/03/25 09:28:20;;;;;;;;;27.00;22.25;;;;;13.50;30.51;100357.69;5013628;28;8894;-72
2022/03/25 09:30:48;;;;;;;;;28.75;25.50;;;;;13.62;30.38;100359.44;5047200;28;8871;-72
2022/03/25 09:33:17;;;;;;;;;29.25;27.25;;;;;13.34;30.75;100363.78;5064345;28;8838;-72
2022/03/25 09:35:47;;;;;;;;;24.25;23.00;;;;;13.48;30.38;100366.41;5066784;28;8855;-72
2022/03/25 09:38:16;;;;;;;;;30.50;27.25;;;;;13.38;30.68;100362.91;5066245;28;8966;-73
2022/03/25 09:40:45;;;;;;;;;26.25;25.25;;;;;13.21;30.38;100361.13;5106946;28;8850;-72
2022/03/25 09:43:15;;;;;;;;;27.25;26.25;;;;;13.00;31.21;100354.06;5110101;28;9438;-72
2022/03/25 09:45:45;;;;;;;;;34.00;31.50;;;;;12.79;31.41;100354.03;5108213;28;8973;-72
2022/03/25 09:48:14;;;;;;;;;28.50;25.75;;;;;13.04;31.80;100363.72;5106573;28;8984;-71
2022/03/25 09:50:42;;;;;;;;;25.25;23.00;;;;;13.22;31.38;100362.88;5110467;28;8838;-71
2022/03/25 09:53:32;;;;;;;;;24.50;24.25;;;;;13.23;30.96;100362.00;5092087;28;8851;-73
2022/03/25 09:56:00;;;;;;;;;26.00;24.25;;;;;13.40;30.41;100358.53;5092203;28;8958;-72
2022/03/25 09:58:29;;;;;;;;;28.50;24.75;;;;;13.13;31.53;100360.22;5109508;28;8834;-73
2022/03/25 10:01:00;;;;;;;;;23.75;21.50;;;;;12.93;31.58;100359.28;5106196;28;8877;-72
2022/03/25 10:03:35;;;;;;;;;25.25;24.00;;;;;13.30;31.04;100355.06;5074233;28;8874;-72
2022/03/25 10:06:10;;;;;;;;;25.25;23.50;;;;;13.46;31.24;100350.72;5090142;28;8991;-72
2022/03/25 10:08:45;;;;;;;;;23.50;21.25;;;;;13.51;30.55;100346.31;5089032;28;8857;-72
2022/03/25 10:11:24;;;;;;;;;23.75;22.00;;;;;13.17;31.34;100354.13;5089834;28;8957;-72
2022/03/25 10:14:14;;;;;;;;;24.25;23.00;;;;;13.23;31.23;100341.06;5084543;28;8870;-71
2022/03/25 10:16:46;;;;;;;;;22.75;21.25;;;;;13.39;31.03;100343.72;5098725;28;8893;-71
2022/03/25 10:19:18;;;;;;;;;20.75;20.00;;;;;13.63;30.22;100340.25;5056627;28;8888;-71
2022/03/25 10:21:52;;;;;;;;;23.50;20.50;;;;;13.69;30.48;100324.50;5102529;28;8966;-72
2022/03/25 10:24:36;;;;;;;;;19.50;18.50;;;;;13.64;30.02;100337.59;5108624;28;8878;-73
2022/03/25 10:27:15;;;;;;;;;21.50;19.50;;;;;13.64;30.25;100337.59;5062686;28;9113;-69
2022/03/25 10:29:45;;;;;;;;;19.00;18.80;;;;;14.07;28.73;100328.81;5085108;28;8849;-73
2022/03/25 10:32:19;;;;;;;;;21.75;21.25;;;;;14.49;28.06;100324.31;5102129;28;8865;-75
2022/03/25 10:35:06;;;;;;;;;20.50;20.25;;;;;14.09;28.78;100332.31;5077186;28;8878;-74
2022/03/25 10:37:36;;;;;;;;;14.00;12.25;;;;;14.41;28.98;100320.84;5109256;28;8866;-72
2022/03/25 10:40:06;;;;;;;;;19.00;17.25;;;;;14.49;28.60;100326.06;5091062;28;8843;-73
2022/03/25 10:42:36;;;;;;;;;16.75;16.50;;;;;14.58;28.08;100318.19;5056363;28;8866;-71
2022/03/25 10:45:26;;;;;;;;;23.75;21.50;;;;;14.80;28.62;100309.31;5091120;28;8927;-74
2022/03/25 10:48:15;;;;;;;;;16.50;16.50;;;;;15.20;28.02;100305.56;5089966;28;8862;-73
2022/03/25 10:51:03;;;;;;;;;21.00;20.00;;;;;15.53;27.06;100301.78;5086243;28;8885;-73
2022/03/25 10:53:33;;;;;;;;;25.50;21.25;;;;;15.30;27.24;100295.88;5089907;28;8854;-73
2022/03/25 10:56:06;;;;;;;;;24.50;23.50;;;;;14.93;28.00;100304.88;5108322;28;8866;-75
2022/03/25 10:58:37;;;;;;;;;20.75;19.50;;;;;15.34;27.58;100297.56;5108143;28;8850;-73
2022/03/25 11:01:07;;;;;;;;;19.50;17.75;;;;;15.70;27.50;100306.03;5108641;28;9597;-72
2022/03/25 11:03:37;;;;;;;;;18.75;18.50;;;;;15.98;26.89;100294.38;5103651;28;8955;-73
2022/03/25 11:06:07;;;;;;;;;20.50;20.00;;;;;15.86;27.26;100291.88;5088898;28;8857;-73
2022/03/25 11:08:36;;;;;;;;;19.00;18.25;;;;;15.53;27.48;100286.00;5070348;28;8865;-72
2022/03/25 11:11:05;;;;;;;;;25.25;22.50;;;;;15.15;28.30;100300.34;5104880;28;8873;-73
2022/03/25 11:13:34;;;;;;;;;18.75;18.25;;;;;15.21;28.00;100296.78;5090569;28;8947;-72
2022/03/25 11:16:05;;;;;;;;;21.75;19.75;;;;;15.36;27.71;100299.28;5108932;28;8866;-74
2022/03/25 11:18:36;;;;;;;;;22.00;20.75;;;;;15.09;28.41;100286.38;5108611;28;8938;-71
2022/03/25 11:21:08;;;;;;;;;19.25;19.25;;;;;15.21;28.17;100289.78;5098089;28;8898;-71
2022/03/25 11:23:43;;;;;;;;;21.75;21.50;;;;;15.44;28.08;100293.13;5088691;28;8888;-74
2022/03/25 11:26:14;;;;;;;;;21.75;18.50;;;;;15.42;27.96;100287.00;5072800;28;8855;-72
2022/03/25 11:28:44;;;;;;;;;23.00;22.75;;;;;15.03;28.95;100308.31;5108979;28;8929;-67
2022/03/25 11:31:13;;;;;;;;;26.25;22.00;;;;;14.89;29.44;100289.13;5108677;28;9007;-74
2022/03/25 11:34:09;;;;;;;;;25.50;23.25;;;;;15.33;28.70;100278.31;5103538;28;8947;-76
2022/03/25 11:36:43;;;;;;;;;14.75;13.00;;;;;15.23;28.74;100294.16;5095735;28;8862;-74
2022/03/25 11:39:22;;;;;;;;;18.25;17.50;;;;;15.29;28.81;100276.59;5108472;28;8866;-74